sensor_id;sensor_type;location;lat;lon;timestamp;pressure;altitude;pressure_sealevel;temperature;humidity
78313;BME280;67568;47.438;21.408;2023-04-07T00:00:23;100339.16;;;1.83;88.13
78313;BME280;67568;47.438;21.408;2023-04-07T00:02:50;100347.44;;;1.88;87.03
78313;BME280;67568;47.438;21.408;2023-04-07T00:05:17;100345.59;;;1.76;87.44
78313;BME280;67568;47.438;21.408;2023-04-07T00:07:43;100341.81;;;1.77;88.04
78313;BME280;67568;47.438;21.408;2023-04-07T00:10:22;100335.91;;;1.69;88.83
78313;BME280;67568;47.438;21.408;2023-04-07T00:12:49;100337.97;;;1.78;88.60
78313;BME280;67568;47.438;21.408;2023-04-07T00:15:15;100341.63;;;1.84;88.78
78313;BME280;67568;47.438;21.408;2023-04-07T00:17:42;100341.91;;;1.83;87.76
78313;BME280;67568;47.438;21.408;2023-04-07T00:20:09;100341.63;;;1.84;87.80
78313;BME280;67568;47.438;21.408;2023-04-07T00:22:36;100341.53;;;1.79;87.72
78313;BME280;67568;47.438;21.408;2023-04-07T00:25:03;100340.06;;;1.71;87.40
78313;BME280;67568;47.438;21.408;2023-04-07T00:27:30;100336.72;;;1.69;87.86
78313;BME280;67568;47.438;21.408;2023-04-07T00:29:56;100337.38;;;1.76;88.91
78313;BME280;67568;47.438;21.408;2023-04-07T00:32:23;100344.53;;;1.77;88.03
78313;BME280;67568;47.438;21.408;2023-04-07T00:34:50;100337.81;;;1.68;88.87
78313;BME280;67568;47.438;21.408;2023-04-07T00:37:16;100333.75;;;1.71;88.73
78313;BME280;67568;47.438;21.408;2023-04-07T00:39:43;100338.88;;;1.67;89.19
78313;BME280;67568;47.438;21.408;2023-04-07T00:42:10;100338.63;;;1.69;89.25
78313;BME280;67568;47.438;21.408;2023-04-07T00:44:37;100339.56;;;1.74;89.45
78313;BME280;67568;47.438;21.408;2023-04-07T00:47:03;100344.31;;;1.67;89.12
78313;BME280;67568;47.438;21.408;2023-04-07T00:49:30;100338.97;;;1.72;88.55
78313;BME280;67568;47.438;21.408;2023-04-07T00:51:57;100344.69;;;1.71;89.13
78313;BME280;67568;47.438;21.408;2023-04-07T00:54:24;100336.84;;;1.74;88.41
78313;BME280;67568;47.438;21.408;2023-04-07T00:56:53;100340.06;;;1.71;88.03
78313;BME280;67568;47.438;21.408;2023-04-07T00:59:20;100331.59;;;1.73;88.85
78313;BME280;67568;47.438;21.408;2023-04-07T01:04:58;100340.19;;;1.65;88.52
78313;BME280;67568;47.438;21.408;2023-04-07T01:07:35;100332.25;;;1.63;88.64
78313;BME280;67568;47.438;21.408;2023-04-07T01:10:06;100338.97;;;1.72;88.47
78313;BME280;67568;47.438;21.408;2023-04-07T01:15:26;100334.97;;;1.63;89.42
78313;BME280;67568;47.438;21.408;2023-04-07T01:18:00;100327.38;;;1.65;89.04
78313;BME280;67568;47.438;21.408;2023-04-07T01:20:32;100336.28;;;1.61;89.14
78313;BME280;67568;47.438;21.408;2023-04-07T01:23:04;100333.66;;;1.66;89.61
78313;BME280;67568;47.438;21.408;2023-04-07T01:31:04;100327.81;;;1.45;88.23
78313;BME280;67568;47.438;21.408;2023-04-07T01:33:33;100338.56;;;1.52;89.21
78313;BME280;67568;47.438;21.408;2023-04-07T01:36:04;100327.06;;;1.50;89.08
78313;BME280;67568;47.438;21.408;2023-04-07T01:38:32;100333.72;;;1.54;88.73
78313;BME280;67568;47.438;21.408;2023-04-07T01:40:59;100331.06;;;1.59;88.13
78313;BME280;67568;47.438;21.408;2023-04-07T01:43:27;100326.91;;;1.56;89.21
78313;BME280;67568;47.438;21.408;2023-04-07T01:45:56;100336.94;;;1.51;88.67
78313;BME280;67568;47.438;21.408;2023-04-07T01:48:23;100328.75;;;1.51;88.63
78313;BME280;67568;47.438;21.408;2023-04-07T01:50:53;100327.66;;;1.52;89.58
78313;BME280;67568;47.438;21.408;2023-04-07T01:53:22;100323.94;;;1.58;89.58
78313;BME280;67568;47.438;21.408;2023-04-07T01:55:49;100328.25;;;1.54;88.28
78313;BME280;67568;47.438;21.408;2023-04-07T01:58:17;100328.81;;;1.56;90.43
78313;BME280;67568;47.438;21.408;2023-04-07T02:00:44;100337.19;;;1.38;92.83
78313;BME280;67568;47.438;21.408;2023-04-07T02:03:14;100341.69;;;1.44;94.47
78313;BME280;67568;47.438;21.408;2023-04-07T02:05:44;100335.63;;;1.42;94.87
78313;BME280;67568;47.438;21.408;2023-04-07T02:08:11;100325.69;;;1.35;93.61
78313;BME280;67568;47.438;21.408;2023-04-07T02:10:38;100338.72;;;1.33;92.71
78313;BME280;67568;47.438;21.408;2023-04-07T02:13:07;100333.75;;;1.30;92.92
78313;BME280;67568;47.438;21.408;2023-04-07T02:15:35;100331.88;;;1.31;93.09
78313;BME280;67568;47.438;21.408;2023-04-07T02:18:02;100324.84;;;1.35;93.90
78313;BME280;67568;47.438;21.408;2023-04-07T02:20:30;100331.63;;;1.32;94.52
78313;BME280;67568;47.438;21.408;2023-04-07T02:22:57;100328.56;;;1.29;94.81
78313;BME280;67568;47.438;21.408;2023-04-07T02:27:52;100326.44;;;1.19;97.30
78313;BME280;67568;47.438;21.408;2023-04-07T02:30:19;100335.56;;;1.25;97.79
78313;BME280;67568;47.438;21.408;2023-04-07T02:32:46;100323.81;;;1.24;98.28
78313;BME280;67568;47.438;21.408;2023-04-07T02:35:13;100331.53;;;1.27;99.07
78313;BME280;67568;47.438;21.408;2023-04-07T02:37:41;100335.94;;;1.28;99.16
78313;BME280;67568;47.438;21.408;2023-04-07T02:40:08;100326.06;;;1.27;98.52
78313;BME280;67568;47.438;21.408;2023-04-07T02:42:35;100330.81;;;1.32;99.17
78313;BME280;67568;47.438;21.408;2023-04-07T02:45:03;100329.50;;;1.34;98.45
78313;BME280;67568;47.438;21.408;2023-04-07T02:47:30;100336.38;;;1.37;98.67
78313;BME280;67568;47.438;21.408;2023-04-07T02:49:57;100329.16;;;1.31;99.37
78313;BME280;67568;47.438;21.408;2023-04-07T02:52:23;100336.97;;;1.27;98.66
78313;BME280;67568;47.438;21.408;2023-04-07T02:54:50;100339.97;;;1.26;99.32
78313;BME280;67568;47.438;21.408;2023-04-07T02:57:17;100335.22;;;1.21;100.00
78313;BME280;67568;47.438;21.408;2023-04-07T02:59:44;100337.81;;;1.28;100.00
78313;BME280;67568;47.438;21.408;2023-04-07T03:02:10;100336.16;;;1.27;99.38
78313;BME280;67568;47.438;21.408;2023-04-07T03:04:37;100333.91;;;1.24;100.00
78313;BME280;67568;47.438;21.408;2023-04-07T03:07:04;100335.94;;;1.28;100.00
78313;BME280;67568;47.438;21.408;2023-04-07T03:09:31;100334.88;;;1.18;100.00
78313;BME280;67568;47.438;21.408;2023-04-07T03:11:57;100334.72;;;1.24;100.00
78313;BME280;67568;47.438;21.408;2023-04-07T03:14:24;100335.56;;;1.25;99.61
78313;BME280;67568;47.438;21.408;2023-04-07T03:16:51;100334.25;;;1.27;100.00
78313;BME280;67568;47.438;21.408;2023-04-07T03:19:17;100344.22;;;1.22;100.00
78313;BME280;67568;47.438;21.408;2023-04-07T03:21:44;100344.81;;;1.24;99.96
78313;BME280;67568;47.438;21.408;2023-04-07T03:24:10;100342.31;;;1.22;100.00
78313;BME280;67568;47.438;21.408;2023-04-07T03:26:37;100341.72;;;1.32;99.43
78313;BME280;67568;47.438;21.408;2023-04-07T03:29:04;100347.31;;;1.25;99.72
78313;BME280;67568;47.438;21.408;2023-04-07T03:31:30;100347.44;;;1.19;100.00
78313;BME280;67568;47.438;21.408;2023-04-07T03:33:57;100338.66;;;1.28;100.00
78313;BME280;67568;47.438;21.408;2023-04-07T03:36:23;100341.88;;;1.25;99.32
78313;BME280;67568;47.438;21.408;2023-04-07T03:38:50;100341.13;;;1.30;99.73
78313;BME280;67568;47.438;21.408;2023-04-07T03:41:17;100345.66;;;1.24;100.00
78313;BME280;67568;47.438;21.408;2023-04-07T03:43:43;100351.91;;;1.37;99.65
78313;BME280;67568;47.438;21.408;2023-04-07T03:46:10;100348.13;;;1.38;99.61
78313;BME280;67568;47.438;21.408;2023-04-07T03:48:37;100342.06;;;1.35;100.00
78313;BME280;67568;47.438;21.408;2023-04-07T03:51:03;100350.03;;;1.37;98.92
78313;BME280;67568;47.438;21.408;2023-04-07T03:53:30;100353.81;;;1.36;99.09
78313;BME280;67568;47.438;21.408;2023-04-07T03:55:57;100355.94;;;1.46;99.01
78313;BME280;67568;47.438;21.408;2023-04-07T03:58:24;100355.22;;;1.39;98.20
78313;BME280;67568;47.438;21.408;2023-04-07T04:00:51;100349.88;;;1.44;99.26
78313;BME280;67568;47.438;21.408;2023-04-07T04:03:17;100350.09;;;1.42;99.06
78313;BME280;67568;47.438;21.408;2023-04-07T04:05:44;100356.97;;;1.45;98.70
78313;BME280;67568;47.438;21.408;2023-04-07T04:08:11;100356.75;;;1.46;98.83
78313;BME280;67568;47.438;21.408;2023-04-07T04:10:37;100350.34;;;1.41;97.60
78313;BME280;67568;47.438;21.408;2023-04-07T04:13:07;100352.50;;;1.39;97.93
78313;BME280;67568;47.438;21.408;2023-04-07T04:15:33;100360.91;;;1.49;97.66
78313;BME280;67568;47.438;21.408;2023-04-07T04:18:00;100364.78;;;1.53;98.27
78313;BME280;67568;47.438;21.408;2023-04-07T04:20:27;100365.13;;;1.56;97.00
78313;BME280;67568;47.438;21.408;2023-04-07T04:22:53;100355.88;;;1.57;96.63
78313;BME280;67568;47.438;21.408;2023-04-07T04:25:20;100347.81;;;1.63;96.66
78313;BME280;67568;47.438;21.408;2023-04-07T04:27:47;100364.69;;;1.60;94.84
78313;BME280;67568;47.438;21.408;2023-04-07T04:30:13;100361.47;;;1.63;95.49
78313;BME280;67568;47.438;21.408;2023-04-07T04:32:40;100371.53;;;1.62;94.99
78313;BME280;67568;47.438;21.408;2023-04-07T04:35:07;100374.25;;;1.62;94.79
78313;BME280;67568;47.438;21.408;2023-04-07T04:37:33;100374.75;;;1.59;95.18
78313;BME280;67568;47.438;21.408;2023-04-07T04:40:00;100389.09;;;1.66;95.57
78313;BME280;67568;47.438;21.408;2023-04-07T04:42:27;100378.78;;;1.68;94.52
78313;BME280;67568;47.438;21.408;2023-04-07T04:44:53;100387.19;;;1.67;95.28
78313;BME280;67568;47.438;21.408;2023-04-07T04:47:20;100379.38;;;1.58;93.67
78313;BME280;67568;47.438;21.408;2023-04-07T04:49:47;100387.84;;;1.57;93.35
78313;BME280;67568;47.438;21.408;2023-04-07T04:52:13;100389.47;;;1.58;93.39
78313;BME280;67568;47.438;21.408;2023-04-07T04:54:40;100386.41;;;1.54;94.31
78313;BME280;67568;47.438;21.408;2023-04-07T04:57:06;100383.38;;;1.68;95.00
78313;BME280;67568;47.438;21.408;2023-04-07T04:59:33;100381.88;;;1.60;94.45
78313;BME280;67568;47.438;21.408;2023-04-07T05:01:59;100385.41;;;1.72;94.60
78313;BME280;67568;47.438;21.408;2023-04-07T05:04:26;100391.56;;;1.79;95.03
78313;BME280;67568;47.438;21.408;2023-04-07T05:06:53;100393.81;;;1.83;94.79
78313;BME280;67568;47.438;21.408;2023-04-07T05:09:19;100396.16;;;1.79;93.99
78313;BME280;67568;47.438;21.408;2023-04-07T05:11:46;100391.91;;;1.83;93.87
78313;BME280;67568;47.438;21.408;2023-04-07T05:14:13;100391.25;;;1.93;94.11
78313;BME280;67568;47.438;21.408;2023-04-07T05:16:39;100392.56;;;1.90;93.38
78313;BME280;67568;47.438;21.408;2023-04-07T05:19:06;100389.41;;;1.82;92.62
78313;BME280;67568;47.438;21.408;2023-04-07T05:21:33;100394.84;;;1.82;93.88
78313;BME280;67568;47.438;21.408;2023-04-07T05:23:59;100394.38;;;1.85;93.16
78313;BME280;67568;47.438;21.408;2023-04-07T05:26:26;100402.19;;;1.93;93.57
78313;BME280;67568;47.438;21.408;2023-04-07T05:28:52;100401.50;;;1.86;93.02
78313;BME280;67568;47.438;21.408;2023-04-07T05:31:19;100411.13;;;1.88;92.13
78313;BME280;67568;47.438;21.408;2023-04-07T05:33:46;100412.28;;;1.92;91.95
78313;BME280;67568;47.438;21.408;2023-04-07T05:36:12;100405.34;;;2.01;93.66
78313;BME280;67568;47.438;21.408;2023-04-07T05:38:39;100403.22;;;2.03;92.67
78313;BME280;67568;47.438;21.408;2023-04-07T05:41:06;100410.03;;;2.18;92.92
78313;BME280;67568;47.438;21.408;2023-04-07T05:43:32;100408.44;;;2.05;92.43
78313;BME280;67568;47.438;21.408;2023-04-07T05:45:59;100411.25;;;2.10;92.33
78313;BME280;67568;47.438;21.408;2023-04-07T05:48:26;100411.34;;;2.15;92.68
78313;BME280;67568;47.438;21.408;2023-04-07T05:50:52;100409.22;;;2.17;92.45
78313;BME280;67568;47.438;21.408;2023-04-07T05:53:19;100422.88;;;2.17;92.68
78313;BME280;67568;47.438;21.408;2023-04-07T05:55:46;100416.91;;;2.20;91.55
78313;BME280;67568;47.438;21.408;2023-04-07T05:58:12;100422.38;;;2.20;91.55
78313;BME280;67568;47.438;21.408;2023-04-07T06:00:40;100422.81;;;2.29;91.39
78313;BME280;67568;47.438;21.408;2023-04-07T06:03:07;100413.19;;;2.27;91.50
78313;BME280;67568;47.438;21.408;2023-04-07T06:05:33;100415.22;;;2.31;91.76
78313;BME280;67568;47.438;21.408;2023-04-07T06:08:00;100423.00;;;2.39;92.17
78313;BME280;67568;47.438;21.408;2023-04-07T06:10:27;100420.69;;;2.48;92.00
78313;BME280;67568;47.438;21.408;2023-04-07T06:12:53;100428.63;;;2.50;91.31
78313;BME280;67568;47.438;21.408;2023-04-07T06:15:20;100421.66;;;2.42;90.87
78313;BME280;67568;47.438;21.408;2023-04-07T06:17:46;100429.78;;;2.37;90.68
78313;BME280;67568;47.438;21.408;2023-04-07T06:20:13;100422.03;;;2.45;90.48
78313;BME280;67568;47.438;21.408;2023-04-07T06:22:39;100419.19;;;2.40;91.16
78313;BME280;67568;47.438;21.408;2023-04-07T06:25:06;100409.97;;;2.30;90.52
78313;BME280;67568;47.438;21.408;2023-04-07T06:27:33;100421.41;;;2.27;90.22
78313;BME280;67568;47.438;21.408;2023-04-07T06:30:00;100413.03;;;2.33;90.99
78313;BME280;67568;47.438;21.408;2023-04-07T06:32:26;100427.13;;;2.42;91.88
78313;BME280;67568;47.438;21.408;2023-04-07T06:34:53;100428.91;;;2.48;90.66
78313;BME280;67568;47.438;21.408;2023-04-07T06:37:20;100430.97;;;2.58;91.34
78313;BME280;67568;47.438;21.408;2023-04-07T06:39:46;100425.75;;;2.56;90.25
78313;BME280;67568;47.438;21.408;2023-04-07T06:42:13;100432.63;;;2.59;90.97
78313;BME280;67568;47.438;21.408;2023-04-07T06:44:40;100435.13;;;2.60;91.04
78313;BME280;67568;47.438;21.408;2023-04-07T06:47:06;100439.28;;;2.63;90.48
78313;BME280;67568;47.438;21.408;2023-04-07T06:49:33;100438.59;;;2.56;91.08
78313;BME280;67568;47.438;21.408;2023-04-07T06:52:03;100443.16;;;2.67;89.61
78313;BME280;67568;47.438;21.408;2023-04-07T06:54:29;100446.25;;;2.70;91.11
78313;BME280;67568;47.438;21.408;2023-04-07T06:56:56;100450.03;;;2.69;89.93
78313;BME280;67568;47.438;21.408;2023-04-07T06:59:23;100450.38;;;2.73;89.22
78313;BME280;67568;47.438;21.408;2023-04-07T07:01:49;100445.41;;;2.70;89.24
78313;BME280;67568;47.438;21.408;2023-04-07T07:04:16;100457.34;;;2.64;90.38
78313;BME280;67568;47.438;21.408;2023-04-07T07:06:42;100463.81;;;2.75;90.35
78313;BME280;67568;47.438;21.408;2023-04-07T07:09:09;100468.19;;;2.76;89.92
78313;BME280;67568;47.438;21.408;2023-04-07T07:11:36;100466.06;;;2.78;90.14
78313;BME280;67568;47.438;21.408;2023-04-07T07:14:02;100472.94;;;2.80;89.61
78313;BME280;67568;47.438;21.408;2023-04-07T07:16:29;100464.63;;;2.75;89.89
78313;BME280;67568;47.438;21.408;2023-04-07T07:18:55;100471.63;;;2.83;90.21
78313;BME280;67568;47.438;21.408;2023-04-07T07:21:22;100472.75;;;2.87;89.45
78313;BME280;67568;47.438;21.408;2023-04-07T07:23:48;100480.31;;;2.80;89.82
78313;BME280;67568;47.438;21.408;2023-04-07T07:26:15;100478.50;;;2.85;91.06
78313;BME280;67568;47.438;21.408;2023-04-07T07:28:42;100484.72;;;2.81;89.79
78313;BME280;67568;47.438;21.408;2023-04-07T07:31:12;100477.72;;;2.73;90.51
78313;BME280;67568;47.438;21.408;2023-04-07T07:33:40;100483.38;;;2.66;90.47
78313;BME280;67568;47.438;21.408;2023-04-07T07:36:07;100493.31;;;2.73;92.06
78313;BME280;67568;47.438;21.408;2023-04-07T07:38:33;100492.31;;;2.79;90.98
78313;BME280;67568;47.438;21.408;2023-04-07T07:41:03;100495.47;;;2.87;91.71
78313;BME280;67568;47.438;21.408;2023-04-07T07:43:29;100493.34;;;2.89;91.97
78313;BME280;67568;47.438;21.408;2023-04-07T07:45:56;100499.13;;;2.93;92.31
78313;BME280;67568;47.438;21.408;2023-04-07T07:48:23;100489.03;;;2.93;91.97
78313;BME280;67568;47.438;21.408;2023-04-07T07:50:50;100491.28;;;2.97;92.78
78313;BME280;67568;47.438;21.408;2023-04-07T07:53:17;100496.44;;;2.64;91.36
78313;BME280;67568;47.438;21.408;2023-04-07T07:55:45;100500.28;;;2.63;92.68
78313;BME280;67568;47.438;21.408;2023-04-07T07:58:11;100505.44;;;2.77;94.38
78313;BME280;67568;47.438;21.408;2023-04-07T08:00:38;100510.72;;;2.66;94.56
78313;BME280;67568;47.438;21.408;2023-04-07T08:03:04;100513.56;;;2.72;96.15
78313;BME280;67568;47.438;21.408;2023-04-07T08:05:31;100515.31;;;2.78;96.02
78313;BME280;67568;47.438;21.408;2023-04-07T08:07:57;100515.97;;;2.68;95.25
78313;BME280;67568;47.438;21.408;2023-04-07T08:10:24;100519.03;;;2.72;95.62
78313;BME280;67568;47.438;21.408;2023-04-07T08:12:51;100518.69;;;2.68;95.31
78313;BME280;67568;47.438;21.408;2023-04-07T08:15:17;100525.97;;;2.62;94.45
78313;BME280;67568;47.438;21.408;2023-04-07T08:17:44;100530.84;;;2.60;94.08
78313;BME280;67568;47.438;21.408;2023-04-07T08:20:11;100531.25;;;2.52;94.21
78313;BME280;67568;47.438;21.408;2023-04-07T08:22:38;100527.03;;;2.61;94.36
78313;BME280;67568;47.438;21.408;2023-04-07T08:25:04;100524.50;;;2.72;94.02
78313;BME280;67568;47.438;21.408;2023-04-07T08:27:31;100526.94;;;2.85;93.88
78313;BME280;67568;47.438;21.408;2023-04-07T08:30:02;100519.78;;;2.84;93.83
78313;BME280;67568;47.438;21.408;2023-04-07T08:32:43;100524.19;;;2.85;93.58
78313;BME280;67568;47.438;21.408;2023-04-07T08:35:10;100524.44;;;2.83;93.87
78313;BME280;67568;47.438;21.408;2023-04-07T08:37:38;100528.19;;;2.94;93.74
78313;BME280;67568;47.438;21.408;2023-04-07T08:40:05;100523.69;;;2.88;93.60
78313;BME280;67568;47.438;21.408;2023-04-07T08:42:33;100522.63;;;2.89;92.80
78313;BME280;67568;47.438;21.408;2023-04-07T08:45:05;100527.00;;;2.90;93.53
78313;BME280;67568;47.438;21.408;2023-04-07T08:47:34;100526.03;;;2.96;92.28
78313;BME280;67568;47.438;21.408;2023-04-07T08:50:05;100527.41;;;2.99;91.87
78313;BME280;67568;47.438;21.408;2023-04-07T08:52:43;100533.56;;;2.89;91.72
78313;BME280;67568;47.438;21.408;2023-04-07T08:55:10;100533.47;;;2.84;91.71
78313;BME280;67568;47.438;21.408;2023-04-07T08:57:37;100529.72;;;2.90;91.72
78313;BME280;67568;47.438;21.408;2023-04-07T09:00:05;100535.41;;;3.00;91.84
78313;BME280;67568;47.438;21.408;2023-04-07T09:02:33;100532.25;;;2.91;91.42
78313;BME280;67568;47.438;21.408;2023-04-07T09:05:04;100530.91;;;2.94;91.42
78313;BME280;67568;47.438;21.408;2023-04-07T09:07:32;100535.66;;;3.15;91.76
78313;BME280;67568;47.438;21.408;2023-04-07T09:09:59;100533.81;;;3.21;91.01
78313;BME280;67568;47.438;21.408;2023-04-07T09:12:27;100532.50;;;3.24;89.63
78313;BME280;67568;47.438;21.408;2023-04-07T09:14:54;100534.69;;;3.22;89.01
78313;BME280;67568;47.438;21.408;2023-04-07T09:17:21;100542.03;;;3.38;90.73
78313;BME280;67568;47.438;21.408;2023-04-07T09:19:47;100537.63;;;3.54;90.11
78313;BME280;67568;47.438;21.408;2023-04-07T09:22:14;100538.13;;;3.68;89.51
78313;BME280;67568;47.438;21.408;2023-04-07T09:24:41;100529.31;;;3.66;89.18
78313;BME280;67568;47.438;21.408;2023-04-07T09:27:15;100533.28;;;3.75;87.69
78313;BME280;67568;47.438;21.408;2023-04-07T09:29:46;100532.31;;;3.86;88.85
78313;BME280;67568;47.438;21.408;2023-04-07T09:32:34;100536.78;;;3.92;89.02
78313;BME280;67568;47.438;21.408;2023-04-07T09:35:00;100540.50;;;4.03;89.30
78313;BME280;67568;47.438;21.408;2023-04-07T09:37:27;100544.59;;;4.00;87.44
78313;BME280;67568;47.438;21.408;2023-04-07T09:39:54;100544.13;;;3.87;87.42
78313;BME280;67568;47.438;21.408;2023-04-07T09:42:20;100551.75;;;4.01;87.83
78313;BME280;67568;47.438;21.408;2023-04-07T09:44:47;100538.72;;;4.14;87.71
78313;BME280;67568;47.438;21.408;2023-04-07T09:47:14;100536.34;;;4.00;86.62
78313;BME280;67568;47.438;21.408;2023-04-07T09:49:51;100540.13;;;3.94;86.78
78313;BME280;67568;47.438;21.408;2023-04-07T09:52:25;100546.44;;;3.56;86.96
78313;BME280;67568;47.438;21.408;2023-04-07T09:55:07;100543.31;;;3.69;87.25
78313;BME280;67568;47.438;21.408;2023-04-07T09:57:36;100546.09;;;3.52;87.06
78313;BME280;67568;47.438;21.408;2023-04-07T10:00:04;100546.50;;;3.61;88.55
78313;BME280;67568;47.438;21.408;2023-04-07T10:02:31;100551.72;;;3.63;88.06
78313;BME280;67568;47.438;21.408;2023-04-07T10:04:58;100550.91;;;3.62;88.04
78313;BME280;67568;47.438;21.408;2023-04-07T10:07:25;100551.22;;;3.66;89.31
78313;BME280;67568;47.438;21.408;2023-04-07T10:09:52;100544.09;;;3.65;88.08
78313;BME280;67568;47.438;21.408;2023-04-07T10:12:18;100558.03;;;3.63;87.07
78313;BME280;67568;47.438;21.408;2023-04-07T10:14:45;100560.13;;;3.56;88.09
78313;BME280;67568;47.438;21.408;2023-04-07T10:17:15;100564.84;;;3.60;88.32
78313;BME280;67568;47.438;21.408;2023-04-07T10:19:44;100565.25;;;3.52;87.52
78313;BME280;67568;47.438;21.408;2023-04-07T10:22:13;100561.38;;;3.48;88.86
78313;BME280;67568;47.438;21.408;2023-04-07T10:24:56;100565.53;;;3.51;87.99
78313;BME280;67568;47.438;21.408;2023-04-07T10:27:31;100565.16;;;3.64;88.32
78313;BME280;67568;47.438;21.408;2023-04-07T10:29:59;100556.19;;;3.69;87.83
78313;BME280;67568;47.438;21.408;2023-04-07T10:32:26;100565.00;;;3.71;88.18
78313;BME280;67568;47.438;21.408;2023-04-07T10:34:55;100566.03;;;3.65;86.83
78313;BME280;67568;47.438;21.408;2023-04-07T10:37:23;100567.75;;;3.71;87.29
78313;BME280;67568;47.438;21.408;2023-04-07T10:40:25;100566.22;;;3.80;87.07
78313;BME280;67568;47.438;21.408;2023-04-07T10:45:05;100572.44;;;3.92;85.70
78313;BME280;67568;47.438;21.408;2023-04-07T10:47:33;100579.16;;;4.23;86.15
78313;BME280;67568;47.438;21.408;2023-04-07T10:50:21;100579.47;;;4.49;86.39
78313;BME280;67568;47.438;21.408;2023-04-07T10:53:10;100578.72;;;4.54;83.87
78313;BME280;67568;47.438;21.408;2023-04-07T10:55:38;100577.97;;;4.58;84.30
78313;BME280;67568;47.438;21.408;2023-04-07T10:58:24;100581.97;;;4.72;83.52
78313;BME280;67568;47.438;21.408;2023-04-07T11:01:15;100578.31;;;4.94;83.45
78313;BME280;67568;47.438;21.408;2023-04-07T11:03:56;100573.47;;;5.01;82.30
78313;BME280;67568;47.438;21.408;2023-04-07T11:06:23;100577.34;;;5.05;81.91
78313;BME280;67568;47.438;21.408;2023-04-07T11:08:50;100583.72;;;5.11;81.56
78313;BME280;67568;47.438;21.408;2023-04-07T11:11:36;100582.59;;;5.07;82.13
78313;BME280;67568;47.438;21.408;2023-04-07T11:14:04;100581.13;;;4.99;80.42
78313;BME280;67568;47.438;21.408;2023-04-07T11:16:38;100576.28;;;5.11;82.55
78313;BME280;67568;47.438;21.408;2023-04-07T11:19:04;100573.47;;;5.33;80.56
78313;BME280;67568;47.438;21.408;2023-04-07T11:21:31;100578.22;;;5.43;81.19
78313;BME280;67568;47.438;21.408;2023-04-07T11:23:58;100580.53;;;5.56;80.10
78313;BME280;67568;47.438;21.408;2023-04-07T11:26:24;100586.47;;;5.43;78.84
78313;BME280;67568;47.438;21.408;2023-04-07T11:28:52;100580.31;;;5.31;79.71
78313;BME280;67568;47.438;21.408;2023-04-07T11:31:29;100579.75;;;5.29;78.46
78313;BME280;67568;47.438;21.408;2023-04-07T11:34:01;100585.41;;;5.17;78.49
78313;BME280;67568;47.438;21.408;2023-04-07T11:36:29;100581.91;;;5.22;79.71
78313;BME280;67568;47.438;21.408;2023-04-07T11:38:56;100583.28;;;5.24;79.07
78313;BME280;67568;47.438;21.408;2023-04-07T11:41:23;100579.66;;;5.18;79.11
78313;BME280;67568;47.438;21.408;2023-04-07T11:44:10;100586.75;;;5.14;78.88
78313;BME280;67568;47.438;21.408;2023-04-07T11:46:57;100583.59;;;5.28;79.70
78313;BME280;67568;47.438;21.408;2023-04-07T11:49:25;100584.00;;;5.41;78.65
78313;BME280;67568;47.438;21.408;2023-04-07T11:52:03;100581.53;;;5.45;77.53
78313;BME280;67568;47.438;21.408;2023-04-07T11:57:06;100592.72;;;5.71;77.54
78313;BME280;67568;47.438;21.408;2023-04-07T11:59:32;100593.47;;;5.93;78.64
78313;BME280;67568;47.438;21.408;2023-04-07T12:01:59;100589.34;;;5.96;77.52
78313;BME280;67568;47.438;21.408;2023-04-07T12:04:26;100585.03;;;6.10;77.71
78313;BME280;67568;47.438;21.408;2023-04-07T12:06:52;100590.28;;;6.17;75.44
78313;BME280;67568;47.438;21.408;2023-04-07T12:09:32;100592.72;;;6.08;75.51
78313;BME280;67568;47.438;21.408;2023-04-07T12:11:59;100592.81;;;6.28;75.81
78313;BME280;67568;47.438;21.408;2023-04-07T12:14:25;100595.06;;;6.37;75.66
78313;BME280;67568;47.438;21.408;2023-04-07T12:16:52;100592.25;;;6.21;74.54
78313;BME280;67568;47.438;21.408;2023-04-07T12:19:19;100586.19;;;6.19;73.68
78313;BME280;67568;47.438;21.408;2023-04-07T12:21:46;100592.50;;;6.20;74.37
78313;BME280;67568;47.438;21.408;2023-04-07T12:24:12;100596.56;;;6.07;75.11
78313;BME280;67568;47.438;21.408;2023-04-07T12:26:39;100589.16;;;6.07;74.40
78313;BME280;67568;47.438;21.408;2023-04-07T12:29:05;100592.16;;;6.06;74.68
78313;BME280;67568;47.438;21.408;2023-04-07T12:31:32;100594.16;;;6.16;74.63
78313;BME280;67568;47.438;21.408;2023-04-07T12:33:59;100590.34;;;6.27;74.49
78313;BME280;67568;47.438;21.408;2023-04-07T12:36:26;100580.91;;;6.07;73.58
78313;BME280;67568;47.438;21.408;2023-04-07T12:38:54;100586.66;;;6.01;73.79
78313;BME280;67568;47.438;21.408;2023-04-07T12:41:23;100590.53;;;6.10;73.48
78313;BME280;67568;47.438;21.408;2023-04-07T12:43:50;100600.34;;;5.96;74.41
78313;BME280;67568;47.438;21.408;2023-04-07T12:46:19;100598.69;;;5.95;73.92
78313;BME280;67568;47.438;21.408;2023-04-07T12:48:45;100602.63;;;6.04;74.37
78313;BME280;67568;47.438;21.408;2023-04-07T12:51:12;100589.94;;;6.03;74.46
78313;BME280;67568;47.438;21.408;2023-04-07T12:53:39;100597.13;;;6.04;73.51
78313;BME280;67568;47.438;21.408;2023-04-07T12:56:05;100599.78;;;5.94;74.40
78313;BME280;67568;47.438;21.408;2023-04-07T12:58:32;100600.22;;;5.80;74.82
78313;BME280;67568;47.438;21.408;2023-04-07T13:00:58;100595.53;;;5.76;74.02
78313;BME280;67568;47.438;21.408;2023-04-07T13:03:25;100608.66;;;5.69;75.10
78313;BME280;67568;47.438;21.408;2023-04-07T13:05:52;100602.38;;;5.73;75.29
78313;BME280;67568;47.438;21.408;2023-04-07T13:08:18;100601.06;;;5.44;75.61
78313;BME280;67568;47.438;21.408;2023-04-07T13:10:45;100605.75;;;5.48;75.87
78313;BME280;67568;47.438;21.408;2023-04-07T13:13:12;100600.78;;;5.45;75.31